Time;durP1;ratioP1;P1;durP2;ratioP2;P2;SDS_P1;SDS_P2;PMS_P1;PMS_P2;Temp;Humidity;BMP_temperature;BMP_pressure;BME280_temperature;BME280_humidity;BME280_pressure;Samples;Min_cycle;Max_cycle;Signal;HPM_P1;HPM_P2
2023/04/07 00:01:43;;;;;;;36.45;19.70;;;6.90;1.00;;;;;;5072038;28;20052;-85
2023/04/07 00:04:09;;;;;;;42.42;20.10;;;6.80;1.00;;;;;;5074098;28;20048;-84
2023/04/07 00:06:35;;;;;;;40.05;20.10;;;6.80;1.00;;;;;;5059078;28;20052;-84
2023/04/07 00:09:01;;;;;;;40.35;19.85;;;6.90;1.00;;;;;;5066004;28;20071;-84
2023/04/07 00:11:27;;;;;;;40.55;20.92;;;6.90;1.00;;;;;;5054922;28;20048;-87
2023/04/07 00:13:52;;;;;;;40.45;20.33;;;6.90;1.00;;;;;;5053357;28;20044;-85
2023/04/07 00:16:18;;;;;;;46.80;21.30;;;6.90;1.00;;;;;;5055407;28;20489;-85
2023/04/07 00:18:44;;;;;;;40.85;20.05;;;6.80;1.00;;;;;;5052123;28;20077;-86
2023/04/07 00:21:09;;;;;;;40.17;20.23;;;6.90;1.00;;;;;;5056465;28;20036;-86
2023/04/07 00:23:35;;;;;;;41.10;20.98;;;6.90;1.00;;;;;;5057417;28;20048;-86
2023/04/07 00:26:01;;;;;;;42.90;21.73;;;6.90;1.00;;;;;;5025801;28;20876;-86
2023/04/07 00:28:26;;;;;;;42.95;20.95;;;6.90;1.00;;;;;;5058067;28;20056;-86
2023/04/07 00:30:52;;;;;;;43.92;21.10;;;6.90;1.00;;;;;;5085560;28;20040;-85
2023/04/07 00:33:18;;;;;;;43.92;21.83;;;6.90;1.00;;;;;;5085772;28;20036;-85
2023/04/07 00:35:44;;;;;;;42.78;20.85;;;6.90;1.00;;;;;;5077611;28;20051;-86
2023/04/07 00:38:10;;;;;;;41.33;21.52;;;6.90;1.00;;;;;;5073428;28;20550;-87
2023/04/07 00:40:35;;;;;;;44.60;21.77;;;6.90;1.00;;;;;;5083822;28;20119;-85
2023/04/07 00:43:01;;;;;;;49.50;21.95;;;6.90;1.00;;;;;;5073761;28;20101;-86
2023/04/07 00:45:27;;;;;;;44.38;21.67;;;6.90;1.00;;;;;;5073126;28;20036;-85
2023/04/07 00:47:53;;;;;;;42.53;21.42;;;6.90;1.00;;;;;;5057161;28;20050;-86
2023/04/07 00:50:19;;;;;;;43.38;21.48;;;6.90;1.00;;;;;;5016702;28;20104;-85
2023/04/07 00:52:45;;;;;;;41.50;21.80;;;6.90;1.00;;;;;;5063361;28;20051;-86
2023/04/07 00:55:11;;;;;;;43.55;21.13;;;6.90;1.00;;;;;;5052479;28;20130;-86
2023/04/07 00:57:37;;;;;;;42.55;21.27;;;6.90;1.00;;;;;;5056820;28;20418;-86
2023/04/07 01:00:05;;;;;;;46.92;22.08;;;6.90;1.00;;;;;;5073411;28;20473;-85
2023/04/07 01:02:41;;;;;;;43.88;21.80;;;6.90;1.00;;;;;;5073294;28;20047;-85
2023/04/07 01:05:19;;;;;;;;;;;6.90;1.00;;;;;;5055279;28;20040;-86
2023/04/07 01:08:01;;;;;;;41.45;20.13;;;6.90;7.00;;;;;;5070382;28;19946;-85
2023/04/07 01:10:41;;;;;;;46.03;22.02;;;6.90;3.20;;;;;;5062926;28;20106;-85
2023/04/07 01:13:20;;;;;;;52.28;21.48;;;6.90;1.00;;;;;;5067433;28;20040;-85
2023/04/07 01:15:51;;;;;;;42.83;21.35;;;7.00;1.00;;;;;;5062992;28;20060;-85
2023/04/07 01:18:23;;;;;;;49.25;21.85;;;6.90;1.00;;;;;;5070745;28;20094;-86
2023/04/07 01:20:51;;;;;;;46.30;22.75;;;6.90;1.00;;;;;;5057304;28;20044;-86
2023/04/07 01:23:30;;;;;;;44.63;21.92;;;6.90;1.00;;;;;;5085017;28;20717;-86
2023/04/07 01:26:26;;;;;;;40.90;21.55;;;6.90;1.00;;;;;;5065714;28;20290;-87
2023/04/07 01:29:36;;;;;;;46.40;21.95;;;6.90;1.00;;;;;;5042803;28;20417;-86
2023/04/07 01:32:04;;;;;;;42.58;20.50;;;6.90;1.00;;;;;;5042725;28;20060;-86
2023/04/07 01:34:32;;;;;;;43.75;21.77;;;6.90;1.00;;;;;;5055984;28;20131;-86
2023/04/07 01:37:01;;;;;;;44.83;22.27;;;7.00;1.00;;;;;;5072163;28;20054;-87
2023/04/07 01:39:27;;;;;;;43.17;20.58;;;6.90;1.00;;;;;;5050578;28;20059;-86
2023/04/07 01:41:54;;;;;;;42.35;21.27;;;6.90;1.00;;;;;;5055382;28;20052;-86
2023/04/07 01:44:21;;;;;;;40.75;21.05;;;6.90;1.00;;;;;;5063279;28;20135;-86
2023/04/07 01:46:49;;;;;;;41.28;22.05;;;6.90;1.00;;;;;;5053202;28;20051;-86
2023/04/07 01:49:16;;;;;;;48.15;22.67;;;6.90;1.00;;;;;;5042432;28;20541;-85
2023/04/07 01:51:43;;;;;;;47.05;22.00;;;6.90;2.20;;;;;;5075383;28;20386;-87
2023/04/07 01:54:09;;;;;;;41.15;21.60;;;6.90;1.00;;;;;;5057327;28;20408;-86
2023/04/07 01:56:35;;;;;;;40.67;20.65;;;6.90;3.10;;;;;;5054695;28;20127;-88
2023/04/07 01:59:00;;;;;;;45.30;21.80;;;6.90;1.40;;;;;;5072974;28;20036;-85
2023/04/07 02:01:27;;;;;;;40.25;21.45;;;6.90;2.20;;;;;;5064297;28;20044;-87
2023/04/07 02:04:13;;;;;;;44.55;21.92;;;6.90;1.40;;;;;;5063072;28;20677;-85
2023/04/07 02:06:48;;;;;;;42.75;21.05;;;6.90;1.70;;;;;;5075809;28;20045;-87
2023/04/07 02:09:15;;;;;;;45.22;22.08;;;6.90;2.60;;;;;;5084374;28;20152;-86
2023/04/07 02:11:44;;;;;;;43.50;21.25;;;7.00;6.10;;;;;;5057040;28;20122;-84
2023/04/07 02:14:12;;;;;;;42.10;21.15;;;6.90;4.70;;;;;;5084363;28;20079;-85
2023/04/07 02:16:40;;;;;;;40.15;20.70;;;7.00;3.40;;;;;;5066491;28;20040;-86
2023/04/07 02:19:06;;;;;;;42.95;21.98;;;7.00;3.30;;;;;;5057745;28;20055;-86
2023/04/07 02:21:34;;;;;;;40.70;21.08;;;6.90;5.20;;;;;;5074796;28;20185;-86
2023/04/07 02:24:06;;;;;;;45.45;21.05;;;7.00;8.30;;;;;;5075531;28;20516;-86
2023/04/07 02:26:35;;;;;;;42.72;21.17;;;6.90;15.10;;;;;;5074902;28;20044;-86
2023/04/07 02:29:05;;;;;;;45.85;21.85;;;6.90;18.00;;;;;;5053993;28;20047;-86
2023/04/07 02:31:31;;;;;;;41.15;21.02;;;7.00;15.30;;;;;;5081501;28;20051;-86
2023/04/07 02:33:56;;;;;;;41.22;21.80;;;6.90;11.50;;;;;;5058935;28;20048;-87
2023/04/07 02:36:22;;;;;;;47.10;21.80;;;6.90;9.60;;;;;;5074951;28;20069;-86
2023/04/07 02:38:48;;;;;;;44.15;21.00;;;6.90;10.50;;;;;;5057892;28;20401;-89
2023/04/07 02:41:14;;;;;;;41.25;20.95;;;7.00;12.10;;;;;;5079837;28;20051;-85
2023/04/07 02:43:39;;;;;;;47.28;20.70;;;6.90;16.50;;;;;;5066805;28;20067;-85
2023/04/07 02:46:05;;;;;;;42.30;21.15;;;6.90;15.80;;;;;;5037067;28;20040;-85
2023/04/07 02:48:31;;;;;;;46.45;21.90;;;7.00;23.20;;;;;;5059287;28;20090;-85
2023/04/07 02:50:57;;;;;;;44.67;21.77;;;7.00;21.60;;;;;;5058503;28;20055;-85
2023/04/07 02:53:23;;;;;;;47.22;23.00;;;6.90;28.80;;;;;;5034945;28;20134;-85
2023/04/07 02:55:49;;;;;;;47.33;22.40;;;7.00;23.90;;;;;;5062217;28;20572;-89
2023/04/07 02:58:15;;;;;;;43.50;21.95;;;7.00;27.10;;;;;;5072722;28;20083;-85
2023/04/07 03:00:40;;;;;;;43.45;22.45;;;6.90;32.50;;;;;;5062778;28;20044;-85
2023/04/07 03:03:06;;;;;;;45.08;21.92;;;7.00;29.10;;;;;;5063132;28;20059;-86
2023/04/07 03:05:32;;;;;;;50.45;22.20;;;7.00;30.00;;;;;;5055484;28;20037;-86
2023/04/07 03:07:58;;;;;;;45.70;21.17;;;7.00;31.70;;;;;;5055673;28;20083;-87
2023/04/07 03:10:23;;;;;;;47.38;21.73;;;7.00;31.40;;;;;;5076567;28;20107;-87
2023/04/07 03:12:49;;;;;;;44.03;21.70;;;7.00;36.20;;;;;;5095813;28;20556;-85
2023/04/07 03:15:15;;;;;;;43.00;21.48;;;7.00;33.60;;;;;;5062166;28;20039;-86
2023/04/07 03:17:41;;;;;;;43.05;20.85;;;7.00;31.70;;;;;;5088949;28;20086;-86
2023/04/07 03:20:07;;;;;;;43.40;21.85;;;7.00;29.70;;;;;;5056589;28;20068;-85
2023/04/07 03:22:33;;;;;;;38.65;19.75;;;7.00;30.50;;;;;;5043147;28;20055;-86
2023/04/07 03:24:59;;;;;;;40.95;20.85;;;7.00;37.10;;;;;;5055152;28;20115;-85
2023/04/07 03:27:25;;;;;;;41.15;21.05;;;7.00;39.30;;;;;;5053456;28;20443;-85
2023/04/07 03:29:51;;;;;;;47.67;21.58;;;7.00;39.90;;;;;;5081118;28;20112;-85
2023/04/07 03:32:17;;;;;;;41.33;21.58;;;7.00;43.90;;;;;;5060905;28;20095;-86
2023/04/07 03:34:43;;;;;;;45.67;21.20;;;7.00;45.90;;;;;;5058668;28;20173;-85
2023/04/07 03:37:08;;;;;;;41.25;20.05;;;6.90;45.20;;;;;;5073739;28;20079;-85
2023/04/07 03:39:36;;;;;;;40.58;21.02;;;6.90;47.40;;;;;;5055419;28;20048;-83
2023/04/07 03:42:02;;;;;;;42.70;20.67;;;7.00;44.90;;;;;;5036722;28;20141;-85
2023/04/07 03:44:28;;;;;;;42.50;20.77;;;7.00;45.40;;;;;;5078596;28;20493;-84
2023/04/07 03:46:54;;;;;;;41.28;20.75;;;6.90;42.80;;;;;;5041526;28;20047;-86
2023/04/07 03:49:20;;;;;;;42.80;20.48;;;6.90;49.10;;;;;;5079140;28;20047;-85
2023/04/07 03:51:45;;;;;;;39.35;21.00;;;7.00;52.60;;;;;;5025567;28;20083;-85
2023/04/07 03:54:11;;;;;;;42.17;21.27;;;6.90;54.10;;;;;;5040161;28;20048;-84
2023/04/07 03:56:37;;;;;;;39.78;20.50;;;7.00;57.20;;;;;;5037772;28;20047;-85
2023/04/07 03:59:03;;;;;;;43.08;20.92;;;6.90;65.70;;;;;;5039833;28;20056;-86
2023/04/07 04:01:28;;;;;;;43.33;20.38;;;6.90;69.30;;;;;;5040894;28;20490;-85
2023/04/07 04:03:54;;;;;;;44.13;21.30;;;6.90;72.50;;;;;;5039963;28;20044;-86
2023/04/07 04:06:20;;;;;;;43.35;21.58;;;6.90;67.30;;;;;;5036691;28;20174;-85
2023/04/07 04:08:45;;;;;;;40.13;20.50;;;6.90;66.80;;;;;;5050714;28;20505;-85
2023/04/07 04:11:11;;;;;;;41.92;21.30;;;6.90;72.30;;;;;;5033275;28;20059;-85
2023/04/07 04:13:37;;;;;;;46.92;21.45;;;6.90;69.00;;;;;;5055755;28;20123;-86
2023/04/07 04:16:03;;;;;;;40.13;20.13;;;6.90;70.20;;;;;;5032335;28;20040;-85
2023/04/07 04:18:29;;;;;;;39.80;20.55;;;6.90;69.50;;;;;;5046499;28;20080;-85
2023/04/07 04:20:55;;;;;;;40.90;20.88;;;6.90;69.30;;;;;;5079217;28;20482;-85
2023/04/07 04:23:20;;;;;;;39.80;21.13;;;6.90;70.60;;;;;;5051830;28;20080;-86
2023/04/07 04:25:46;;;;;;;40.60;19.58;;;6.90;72.30;;;;;;5036196;28;20048;-85
2023/04/07 04:28:12;;;;;;;43.47;20.35;;;6.90;73.40;;;;;;5041311;28;20507;-86
2023/04/07 04:30:37;;;;;;;45.85;21.33;;;6.90;78.20;;;;;;5042768;28;20052;-86
2023/04/07 04:33:03;;;;;;;46.80;21.75;;;6.90;77.80;;;;;;5052356;28;20070;-85
2023/04/07 04:35:29;;;;;;;46.00;22.08;;;6.90;75.40;;;;;;5045731;28;20048;-85
2023/04/07 04:37:55;;;;;;;42.15;21.60;;;6.80;77.70;;;;;;5047103;28;20059;-87
2023/04/07 04:40:20;;;;;;;47.65;21.70;;;6.90;80.20;;;;;;5035373;28;20076;-84
2023/04/07 04:42:46;;;;;;;45.95;22.15;;;6.80;77.40;;;;;;5068068;28;20048;-84
2023/04/07 04:45:11;;;;;;;45.45;21.10;;;6.90;77.90;;;;;;5030209;28;20052;-84
2023/04/07 04:47:37;;;;;;;46.55;21.65;;;6.80;85.60;;;;;;5074287;28;20036;-84
2023/04/07 04:50:05;;;;;;;43.97;22.00;;;6.80;86.20;;;;;;5017249;28;20049;-87
2023/04/07 04:52:31;;;;;;;44.78;21.30;;;6.80;81.70;;;;;;5081713;28;20052;-85
2023/04/07 04:54:57;;;;;;;40.47;20.52;;;6.80;82.40;;;;;;5053649;28;20121;-84
2023/04/07 04:57:23;;;;;;;43.20;19.85;;;6.80;83.40;;;;;;5046477;28;20048;-86
2023/04/07 04:59:49;;;;;;;41.75;20.45;;;6.80;83.90;;;;;;5036537;28;20398;-84
2023/04/07 05:02:15;;;;;;;40.78;20.42;;;6.80;88.40;;;;;;5053858;28;20059;-85
2023/04/07 05:04:40;;;;;;;46.60;21.13;;;6.80;86.60;;;;;;5053760;28;20394;-85
2023/04/07 05:07:06;;;;;;;38.53;20.38;;;6.80;87.00;;;;;;5064450;28;20457;-86
2023/04/07 05:09:32;;;;;;;40.80;19.70;;;6.80;85.70;;;;;;5068815;28;20162;-85
2023/04/07 05:11:57;;;;;;;37.90;19.67;;;6.80;86.00;;;;;;5067349;28;20076;-84
2023/04/07 05:14:23;;;;;;;49.13;20.95;;;6.80;86.80;;;;;;5052662;28;20414;-84
2023/04/07 05:16:49;;;;;;;42.80;20.67;;;6.80;90.00;;;;;;5040336;28;20769;-84
2023/04/07 05:19:15;;;;;;;45.65;20.58;;;6.80;88.00;;;;;;5033784;28;20053;-85
2023/04/07 05:21:40;;;;;;;43.92;20.25;;;6.80;87.50;;;;;;5069076;28;20032;-84
2023/04/07 05:24:06;;;;;;;42.78;20.13;;;6.80;87.40;;;;;;5056600;28;20444;-86
2023/04/07 05:26:32;;;;;;;44.00;19.92;;;6.80;85.50;;;;;;5040281;28;20055;-86
2023/04/07 05:28:58;;;;;;;43.05;19.85;;;6.80;87.40;;;;;;5072400;28;20048;-86
2023/04/07 05:31:23;;;;;;;43.85;20.65;;;6.80;83.70;;;;;;5052935;28;20049;-85
2023/04/07 05:33:49;;;;;;;42.70;20.25;;;6.80;85.40;;;;;;5053705;28;20037;-85
2023/04/07 05:36:15;;;;;;;41.55;19.95;;;6.80;85.80;;;;;;5045130;28;20032;-83
2023/04/07 05:38:41;;;;;;;40.35;19.95;;;6.80;85.70;;;;;;5076523;28;20127;-83
2023/04/07 05:41:06;;;;;;;38.95;20.15;;;6.80;83.20;;;;;;5053361;28;20040;-82
2023/04/07 05:43:32;;;;;;;41.00;19.98;;;6.80;83.10;;;;;;5034658;28;20561;-83
2023/04/07 05:45:58;;;;;;;42.95;20.52;;;6.80;83.50;;;;;;5075536;28;20131;-82
2023/04/07 05:48:23;;;;;;;39.28;19.52;;;6.80;86.50;;;;;;5073206;28;20474;-85
2023/04/07 05:50:50;;;;;;;41.00;18.77;;;6.90;84.10;;;;;;5038732;28;20135;-84
2023/04/07 05:53:15;;;;;;;35.85;18.98;;;6.90;83.00;;;;;;5061111;28;20045;-82
2023/04/07 05:55:42;;;;;;;36.15;18.48;;;6.90;85.70;;;;;;5053347;28;20444;-82
2023/04/07 05:58:08;;;;;;;40.17;20.25;;;6.90;86.70;;;;;;5061674;28;20048;-83
2023/04/07 06:00:33;;;;;;;37.47;18.35;;;6.90;88.70;;;;;;5086225;28;20045;-84
2023/04/07 06:03:00;;;;;;;36.60;19.73;;;6.90;90.80;;;;;;5053912;28;20051;-83
2023/04/07 06:05:26;;;;;;;38.28;19.88;;;6.90;91.80;;;;;;5045510;28;20478;-81
2023/04/07 06:07:53;;;;;;;35.75;19.52;;;6.90;91.50;;;;;;5073170;28;20074;-83
2023/04/07 06:10:19;;;;;;;39.33;20.15;;;7.00;91.70;;;;;;5053144;28;20052;-83
2023/04/07 06:12:44;;;;;;;42.33;19.60;;;6.90;90.60;;;;;;5067637;28;20097;-82
2023/04/07 06:15:10;;;;;;;38.95;19.10;;;7.00;90.10;;;;;;5058653;28;20036;-84
2023/04/07 06:17:36;;;;;;;37.67;18.90;;;7.00;90.80;;;;;;5048112;28;20505;-84
2023/04/07 06:20:02;;;;;;;43.50;19.70;;;7.00;90.30;;;;;;5068012;28;20123;-84
2023/04/07 06:22:28;;;;;;;39.03;20.05;;;7.00;90.70;;;;;;5033183;28;20075;-84
2023/04/07 06:24:54;;;;;;;38.95;19.65;;;7.10;90.40;;;;;;5068161;28;20068;-84
2023/04/07 06:27:20;;;;;;;36.72;19.65;;;7.10;90.10;;;;;;5085786;28;20120;-84
2023/04/07 06:29:46;;;;;;;38.00;20.63;;;7.20;90.90;;;;;;5054017;28;20044;-84
2023/04/07 06:32:12;;;;;;;38.03;19.58;;;7.20;91.40;;;;;;5057124;28;20055;-84
2023/04/07 06:34:38;;;;;;;40.10;19.48;;;7.20;92.30;;;;;;5048202;28;20094;-84
2023/04/07 06:37:05;;;;;;;38.20;18.67;;;7.20;92.40;;;;;;5056663;28;20051;-83
2023/04/07 06:39:31;;;;;;;35.67;18.38;;;7.20;92.80;;;;;;5070714;28;20044;-83
2023/04/07 06:41:56;;;;;;;36.72;19.38;;;7.20;92.30;;;;;;5056589;28;20052;-84
2023/04/07 06:44:22;;;;;;;35.63;19.23;;;7.30;92.40;;;;;;5089386;28;20048;-84
2023/04/07 06:46:52;;;;;;;48.72;23.17;;;7.30;92.90;;;;;;5073327;28;20047;-84
2023/04/07 06:49:18;;;;;;;40.17;20.15;;;7.30;93.10;;;;;;5054864;28;20060;-85
2023/04/07 06:51:44;;;;;;;47.47;24.42;;;7.40;93.10;;;;;;5043649;28;20047;-84
2023/04/07 06:54:13;;;;;;;35.20;18.80;;;7.50;92.10;;;;;;5044771;28;20048;-84
2023/04/07 06:56:40;;;;;;;38.70;19.85;;;7.50;89.80;;;;;;5069226;28;20047;-83
2023/04/07 06:59:05;;;;;;;32.97;18.13;;;7.60;90.30;;;;;;5042561;28;20375;-82
2023/04/07 07:01:32;;;;;;;32.20;18.55;;;7.60;90.50;;;;;;5046003;28;20072;-83
2023/04/07 07:03:57;;;;;;;34.72;18.50;;;7.70;83.20;;;;;;5067643;28;20048;-81
2023/04/07 07:06:23;;;;;;;29.90;17.60;;;7.60;86.60;;;;;;5054817;28;20062;-79
2023/04/07 07:08:49;;;;;;;31.20;16.95;;;7.70;89.20;;;;;;5072153;28;20131;-80
2023/04/07 07:11:15;;;;;;;34.35;17.00;;;7.80;87.70;;;;;;5038250;28;20052;-80
2023/04/07 07:13:40;;;;;;;33.50;18.55;;;7.80;85.20;;;;;;5070212;28;20044;-79
2023/04/07 07:16:06;;;;;;;32.08;17.08;;;7.90;83.10;;;;;;5073296;28;20135;-80
2023/04/07 07:18:32;;;;;;;31.50;17.27;;;8.00;83.90;;;;;;5080614;28;20106;-80
2023/04/07 07:20:58;;;;;;;29.90;17.83;;;8.00;79.50;;;;;;5046940;28;20489;-80
2023/04/07 07:23:23;;;;;;;28.50;15.88;;;8.10;75.90;;;;;;5057392;28;20048;-86
2023/04/07 07:25:49;;;;;;;28.23;16.10;;;8.10;72.10;;;;;;5044495;28;20062;-82
2023/04/07 07:28:15;;;;;;;32.30;17.33;;;8.10;63.40;;;;;;5040508;28;20044;-82
2023/04/07 07:30:41;;;;;;;27.33;16.42;;;8.10;60.00;;;;;;5078635;28;20059;-82
2023/04/07 07:33:07;;;;;;;27.92;16.83;;;8.10;63.10;;;;;;5041762;28;20493;-82
2023/04/07 07:35:32;;;;;;;29.23;17.10;;;8.10;62.90;;;;;;5062283;28;20527;-82
2023/04/07 07:38:00;;;;;;;26.58;16.02;;;8.20;57.80;;;;;;5063707;28;20043;-86
2023/04/07 07:40:25;;;;;;;30.00;17.27;;;8.20;63.90;;;;;;5076853;28;20047;-87
2023/04/07 07:42:51;;;;;;;29.00;16.75;;;8.20;63.80;;;;;;5063876;28;20048;-82
2023/04/07 07:45:18;;;;;;;27.95;16.58;;;8.30;62.20;;;;;;5049861;28;20052;-81
2023/04/07 07:47:44;;;;;;;25.55;15.52;;;8.30;59.90;;;;;;5066913;28;20101;-82
2023/04/07 07:50:10;;;;;;;27.08;15.90;;;8.30;56.70;;;;;;5049898;28;20045;-84
2023/04/07 07:52:36;;;;;;;29.92;16.58;;;8.30;56.60;;;;;;5045792;28;20135;-81
2023/04/07 07:55:02;;;;;;;27.85;15.30;;;8.40;59.60;;;;;;5074796;28;20051;-83
2023/04/07 07:57:30;;;;;;;26.00;15.30;;;8.40;61.10;;;;;;5078399;28;20073;-86
2023/04/07 07:59:55;;;;;;;24.38;15.20;;;8.50;57.40;;;;;;5062534;28;20493;-82
2023/04/07 08:02:21;;;;;;;27.00;15.55;;;8.50;47.60;;;;;;5077637;28;20083;-81
2023/04/07 08:04:47;;;;;;;25.83;14.85;;;8.50;51.00;;;;;;5045114;28;20041;-81
2023/04/07 08:07:12;;;;;;;21.40;13.65;;;8.50;47.10;;;;;;5081144;28;20174;-81
2023/04/07 08:09:38;;;;;;;23.42;13.88;;;8.50;41.00;;;;;;5078001;28;20047;-81
2023/04/07 08:12:04;;;;;;;24.85;14.25;;;8.50;36.50;;;;;;5044587;28;20059;-81
2023/04/07 08:14:29;;;;;;;24.42;14.60;;;8.50;39.10;;;;;;5062509;28;20044;-87
2023/04/07 08:16:55;;;;;;;22.98;14.77;;;8.60;42.10;;;;;;5059277;28;20378;-80
2023/04/07 08:19:21;;;;;;;21.13;13.68;;;8.60;37.40;;;;;;5081715;28;20081;-81
2023/04/07 08:21:46;;;;;;;24.75;14.23;;;8.80;42.30;;;;;;5060196;28;20384;-82
2023/04/07 08:24:12;;;;;;;21.13;13.20;;;8.80;47.00;;;;;;5062298;28;20051;-82
2023/04/07 08:26:38;;;;;;;21.23;13.18;;;8.90;35.80;;;;;;5066264;28;20455;-82
2023/04/07 08:29:03;;;;;;;22.23;13.18;;;9.00;36.60;;;;;;5026557;28;20058;-85
2023/04/07 08:31:29;;;;;;;17.90;11.40;;;9.10;39.30;;;;;;5043159;28;20040;-81
2023/04/07 08:33:57;;;;;;;17.58;11.70;;;9.10;26.50;;;;;;5078321;28;20479;-77
2023/04/07 08:36:27;;;;;;;17.23;11.18;;;9.10;28.80;;;;;;5046661;28;20051;-80
2023/04/07 08:38:53;;;;;;;16.95;11.65;;;9.00;11.70;;;;;;5089478;28;20098;-82
2023/04/07 08:41:35;;;;;;;16.65;10.90;;;9.00;10.60;;;;;;5082197;28;21731;-82
2023/04/07 08:44:02;;;;;;;17.05;10.80;;;8.90;13.70;;;;;;5078877;28;20040;-82
2023/04/07 08:46:28;;;;;;;17.42;11.20;;;8.90;14.30;;;;;;5062332;28;20129;-81
2023/04/07 08:48:55;;;;;;;19.23;10.48;;;8.80;10.00;;;;;;5062625;28;20048;-82
2023/04/07 08:51:32;;;;;;;16.13;10.27;;;8.90;18.00;;;;;;5076331;28;20241;-83
2023/04/07 08:54:17;;;;;;;;;;;9.00;20.30;;;;;;5080571;28;20052;-82
2023/04/07 08:56:43;;;;;;;19.02;10.98;;;9.10;32.50;;;;;;5063701;28;20117;-81
2023/04/07 08:59:14;;;;;;;16.75;11.13;;;9.30;27.80;;;;;;5062580;28;20543;-83
2023/04/07 09:01:40;;;;;;;15.95;10.70;;;9.50;20.60;;;;;;5054729;28;20048;-82
2023/04/07 09:04:08;;;;;;;17.02;10.45;;;9.60;6.50;;;;;;5042648;28;20039;-83
2023/04/07 09:06:34;;;;;;;14.98;10.15;;;9.70;1.00;;;;;;5064373;28;20135;-83
2023/04/07 09:09:01;;;;;;;17.55;11.00;;;9.80;1.00;;;;;;5063211;28;20131;-82
2023/04/07 09:11:28;;;;;;;16.08;10.80;;;9.90;1.00;;;;;;5077229;28;20058;-81
2023/04/07 09:13:55;;;;;;;14.93;10.40;;;9.90;1.00;;;;;;5043295;28;20455;-81
2023/04/07 09:16:22;;;;;;;17.08;10.90;;;9.90;1.00;;;;;;5076823;28;20040;-82
2023/04/07 09:18:48;;;;;;;20.02;11.82;;;9.80;1.00;;;;;;5086386;28;20456;-83
2023/04/07 09:21:14;;;;;;;14.18;10.20;;;9.80;1.00;;;;;;5057949;28;20052;-84
2023/04/07 09:23:41;;;;;;;16.33;9.90;;;9.80;1.00;;;;;;5043919;28;20481;-83
2023/04/07 09:26:24;;;;;;;14.20;9.45;;;9.70;1.00;;;;;;5079719;28;20054;-80
2023/04/07 09:28:58;;;;;;;15.55;10.52;;;9.60;1.00;;;;;;5077794;28;20471;-82
2023/04/07 09:31:45;;;;;;;16.73;10.15;;;9.50;1.00;;;;;;5070836;28;20090;-82
2023/04/07 09:34:30;;;;;;;;;;;9.50;1.00;;;;;;5064132;28;20048;-82
2023/04/07 09:36:56;;;;;;;14.02;9.57;;;9.40;1.00;;;;;;5065097;28;20365;-80
2023/04/07 09:39:23;;;;;;;15.02;9.85;;;9.40;1.00;;;;;;5081162;28;20059;-85
2023/04/07 09:41:48;;;;;;;16.33;10.20;;;9.40;1.00;;;;;;5082182;28;20044;-83
2023/04/07 09:44:14;;;;;;;16.10;10.02;;;9.60;1.00;;;;;;5051275;28;20538;-81
2023/04/07 09:46:55;;;;;;;14.93;10.00;;;9.70;1.00;;;;;;5078479;28;20132;-86
2023/04/07 09:49:22;;;;;;;14.32;9.52;;;9.90;1.00;;;;;;5077834;28;20051;-79
2023/04/07 09:52:03;;;;;;;15.20;10.15;;;9.90;1.00;;;;;;5065687;28;20040;-83
2023/04/07 09:54:34;;;;;;;13.90;9.68;;;10.00;1.00;;;;;;5080278;28;20050;-83
2023/04/07 09:57:06;;;;;;;14.73;9.65;;;10.00;1.00;;;;;;5052529;28;20354;-82
2023/04/07 09:59:33;;;;;;;14.55;9.20;;;10.10;1.00;;;;;;5076107;28;20069;-82
2023/04/07 10:01:59;;;;;;;14.75;9.82;;;10.10;1.00;;;;;;5076073;28;20048;-86
2023/04/07 10:04:25;;;;;;;14.25;9.48;;;10.00;1.00;;;;;;5031168;28;20055;-84
2023/04/07 10:06:55;;;;;;;14.32;9.30;;;10.00;1.00;;;;;;5075732;28;20056;-84
2023/04/07 10:09:23;;;;;;;14.95;9.63;;;10.00;1.00;;;;;;5060342;28;20100;-83
2023/04/07 10:11:53;;;;;;;13.68;9.18;;;10.10;1.00;;;;;;5060741;28;20127;-84
2023/04/07 10:14:22;;;;;;;12.93;9.07;;;10.40;1.00;;;;;;5060091;28;20480;-83
2023/04/07 10:16:48;;;;;;;12.48;8.77;;;10.60;1.00;;;;;;5074945;28;20044;-84
2023/04/07 10:19:15;;;;;;;13.05;8.38;;;10.70;1.00;;;;;;5050672;28;20678;-84
2023/04/07 10:21:42;;;;;;;14.27;8.85;;;10.50;1.00;;;;;;5073583;28;20051;-82
2023/04/07 10:24:35;;;;;;;13.90;8.98;;;10.50;1.00;;;;;;5060240;28;20106;-83
2023/04/07 10:27:07;;;;;;;13.15;8.85;;;10.50;1.00;;;;;;5069298;28;20127;-85
2023/04/07 10:29:41;;;;;;;13.25;8.45;;;10.50;1.00;;;;;;5092904;28;20051;-86
2023/04/07 10:32:07;;;;;;;12.43;8.15;;;10.30;1.00;;;;;;5083242;28;20126;-83
2023/04/07 10:34:56;;;;;;;13.02;8.88;;;10.20;1.00;;;;;;5060502;28;20051;-83
2023/04/07 10:37:22;;;;;;;13.43;8.13;;;10.00;1.00;;;;;;5060157;28;20040;-83
2023/04/07 10:39:50;;;;;;;11.75;7.78;;;9.90;1.00;;;;;;5063799;28;20054;-84
2023/04/07 10:42:38;;;;;;;11.35;8.23;;;9.90;1.00;;;;;;5060470;28;20400;-83
2023/04/07 10:45:05;;;;;;;11.95;8.48;;;10.00;1.00;;;;;;5059439;28;20472;-83
2023/04/07 10:47:31;;;;;;;12.00;8.00;;;10.10;1.00;;;;;;5062782;28;20047;-83
2023/04/07 10:50:24;;;;;;;12.57;8.05;;;10.20;1.00;;;;;;5049258;28;20051;-85
2023/04/07 10:53:14;;;;;;;11.65;7.07;;;10.30;1.00;;;;;;5074554;28;20052;-90
2023/04/07 10:55:45;;;;;;;11.00;7.25;;;10.50;1.00;;;;;;5066995;28;20055;-88
2023/04/07 10:58:24;;;;;;;11.32;7.55;;;10.60;99.90;;;;;;5054139;28;20048;-84
2023/04/07 11:01:08;;;;;;;10.93;7.75;;;10.80;99.90;;;;;;5053307;28;20052;-89
2023/04/07 11:03:37;;;;;;;10.75;6.82;;;11.10;99.90;;;;;;5081667;28;20051;-85
2023/04/07 11:06:08;;;;;;;11.15;7.25;;;11.40;99.90;;;;;;5062139;28;20084;-83
2023/04/07 11:08:36;;;;;;;10.20;6.45;;;11.60;99.90;;;;;;5072663;28;20126;-85
2023/04/07 11:11:07;;;;;;;10.50;6.90;;;11.70;99.90;;;;;;5072240;28;20105;-82
2023/04/07 11:13:43;;;;;;;8.45;6.38;;;11.80;99.90;;;;;;5045809;28;20044;-84
2023/04/07 11:16:09;;;;;;;9.45;6.35;;;11.80;80.10;;;;;;5056287;28;20040;-85
2023/04/07 11:18:36;;;;;;;8.93;6.40;;;11.80;51.60;;;;;;5067049;28;20047;-83
2023/04/07 11:21:04;;;;;;;10.02;6.78;;;11.70;32.10;;;;;;5071031;28;20150;-85
2023/04/07 11:23:41;;;;;;;10.65;7.35;;;11.60;41.90;;;;;;5045013;28;20474;-81
2023/04/07 11:26:09;;;;;;;8.73;6.30;;;11.50;1.00;;;;;;5074114;28;20128;-82
2023/04/07 11:28:50;;;;;;;8.77;6.20;;;11.40;1.00;;;;;;5056579;28;20077;-81
2023/04/07 11:31:25;;;;;;;7.53;5.93;;;11.30;6.70;;;;;;5073292;28;20059;-80
2023/04/07 11:33:56;;;;;;;10.65;6.47;;;11.30;1.00;;;;;;5056478;28;20046;-80
2023/04/07 11:36:47;;;;;;;9.88;6.13;;;11.30;18.30;;;;;;5074714;28;20048;-80
2023/04/07 11:39:22;;;;;;;8.75;6.25;;;11.30;1.00;;;;;;5074540;28;20382;-80
2023/04/07 11:41:49;;;;;;;9.88;6.60;;;11.50;1.00;;;;;;5061793;28;20122;-80
2023/04/07 11:44:15;;;;;;;9.50;6.13;;;11.70;1.00;;;;;;5074862;28;20109;-81
2023/04/07 11:46:58;;;;;;;10.68;6.35;;;12.10;1.00;;;;;;5045724;28;20040;-81
2023/04/07 11:49:27;;;;;;;9.63;6.40;;;12.70;1.00;;;;;;5074998;28;20097;-81
2023/04/07 11:52:05;;;;;;;9.45;6.68;;;13.20;1.00;;;;;;5058299;28;20059;-81
2023/04/07 11:54:42;;;;;;;8.23;6.07;;;13.80;99.90;;;;;;5092061;28;20477;-81
2023/04/07 11:57:11;;;;;;;9.40;5.93;;;14.30;99.90;;;;;;5074099;28;20378;-79
2023/04/07 11:59:37;;;;;;;9.57;6.75;;;14.50;99.90;;;;;;5073912;28;20478;-81
2023/04/07 12:02:03;;;;;;;7.55;5.55;;;14.50;99.90;;;;;;5055331;28;20052;-78
2023/04/07 12:04:30;;;;;;;8.90;6.07;;;14.40;99.90;;;;;;5072290;28;20044;-79
2023/04/07 12:07:09;;;;;;;8.23;6.18;;;14.20;99.90;;;;;;5091447;28;20056;-81
2023/04/07 12:09:36;;;;;;;7.50;5.80;;;14.00;99.90;;;;;;5080601;28;20101;-83
2023/04/07 12:12:06;;;;;;;7.85;5.47;;;13.90;99.90;;;;;;5061886;28;20076;-79
2023/04/07 12:14:33;;;;;;;10.65;5.47;;;13.70;99.90;;;;;;5060940;28;20059;-85
2023/04/07 12:17:00;;;;;;;6.18;4.72;;;13.60;99.90;;;;;;5073706;28;20051;-91
2023/04/07 12:19:27;;;;;;;6.93;5.10;;;13.40;99.90;;;;;;5057908;28;20044;-80
2023/04/07 12:21:53;;;;;;;5.90;4.40;;;13.30;99.90;;;;;;5074947;28;20489;-81
2023/04/07 12:24:20;;;;;;;6.80;4.95;;;13.30;99.90;;;;;;5058095;28;20051;-82
2023/04/07 12:26:46;;;;;;;6.00;4.75;;;13.40;99.90;;;;;;5062534;28;20056;-80
2023/04/07 12:29:12;;;;;;;8.25;5.10;;;13.50;99.90;;;;;;5057676;28;20052;-81
2023/04/07 12:31:38;;;;;;;6.93;4.78;;;13.60;99.90;;;;;;5056886;28;20044;-87
2023/04/07 12:34:05;;;;;;;6.65;4.75;;;13.70;99.90;;;;;;5059908;28;20052;-80
2023/04/07 12:36:30;;;;;;;6.45;4.45;;;13.90;99.90;;;;;;5056507;28;20481;-81
2023/04/07 12:38:57;;;;;;;6.18;4.55;;;14.00;99.90;;;;;;5056733;28;20048;-80
2023/04/07 12:41:24;;;;;;;6.07;4.30;;;14.10;99.90;;;;;;5073826;28;20048;-81
2023/04/07 12:43:50;;;;;;;7.72;4.63;;;14.10;99.90;;;;;;5090584;28;20090;-81
2023/04/07 12:46:15;;;;;;;6.32;4.25;;;14.30;99.90;;;;;;5041095;28;20068;-81
2023/04/07 12:48:41;;;;;;;5.82;4.18;;;14.40;99.90;;;;;;5057625;28;20044;-81